sensor_id;sensor_type;location;lat;lon;timestamp;temperature;humidity
15364;DHT22;7781;49.690;6.472;2023-04-06T00:00:38;-0.30;99.90
15364;DHT22;7781;49.690;6.472;2023-04-06T00:03:08;-0.30;99.90
15364;DHT22;7781;49.690;6.472;2023-04-06T00:05:40;-0.30;99.90
15364;DHT22;7781;49.690;6.472;2023-04-06T00:08:09;-0.30;99.90
15364;DHT22;7781;49.690;6.472;2023-04-06T00:10:38;-0.30;99.90
15364;DHT22;7781;49.690;6.472;2023-04-06T00:13:11;-0.40;99.90
15364;DHT22;7781;49.690;6.472;2023-04-06T00:15:40;-0.40;99.90
15364;DHT22;7781;49.690;6.472;2023-04-06T00:18:09;-0.50;99.90
15364;DHT22;7781;49.690;6.472;2023-04-06T00:20:38;-0.50;99.90
15364;DHT22;7781;49.690;6.472;2023-04-06T00:23:07;-0.50;99.90
15364;DHT22;7781;49.690;6.472;2023-04-06T00:25:37;-0.50;99.90
15364;DHT22;7781;49.690;6.472;2023-04-06T00:28:07;-0.50;99.90
15364;DHT22;7781;49.690;6.472;2023-04-06T00:30:37;-0.50;99.90
15364;DHT22;7781;49.690;6.472;2023-04-06T00:33:06;-0.60;99.90
15364;DHT22;7781;49.690;6.472;2023-04-06T00:35:35;-0.60;99.90
15364;DHT22;7781;49.690;6.472;2023-04-06T00:38:03;-0.60;99.90
15364;DHT22;7781;49.690;6.472;2023-04-06T00:40:53;-0.60;99.90
15364;DHT22;7781;49.690;6.472;2023-04-06T00:43:24;-0.60;99.90
15364;DHT22;7781;49.690;6.472;2023-04-06T00:45:55;-0.60;99.90
15364;DHT22;7781;49.690;6.472;2023-04-06T00:48:24;-0.60;99.90
15364;DHT22;7781;49.690;6.472;2023-04-06T00:50:54;-0.60;99.90
15364;DHT22;7781;49.690;6.472;2023-04-06T00:53:23;-0.60;99.90
15364;DHT22;7781;49.690;6.472;2023-04-06T00:55:52;-0.70;99.90
15364;DHT22;7781;49.690;6.472;2023-04-06T00:58:24;-0.70;99.90
15364;DHT22;7781;49.690;6.472;2023-04-06T01:01:05;-0.70;99.90
15364;DHT22;7781;49.690;6.472;2023-04-06T01:03:35;-0.70;99.90
15364;DHT22;7781;49.690;6.472;2023-04-06T01:06:04;-0.70;99.90
15364;DHT22;7781;49.690;6.472;2023-04-06T01:08:37;-0.80;99.90
15364;DHT22;7781;49.690;6.472;2023-04-06T01:11:18;-0.80;99.90
15364;DHT22;7781;49.690;6.472;2023-04-06T01:13:48;-0.80;99.90
15364;DHT22;7781;49.690;6.472;2023-04-06T01:16:26;-0.90;99.90
15364;DHT22;7781;49.690;6.472;2023-04-06T01:19:09;-0.90;99.90
15364;DHT22;7781;49.690;6.472;2023-04-06T01:21:43;-0.80;99.90
15364;DHT22;7781;49.690;6.472;2023-04-06T01:24:46;-0.90;99.90
15364;DHT22;7781;49.690;6.472;2023-04-06T01:27:21;-0.90;99.90
15364;DHT22;7781;49.690;6.472;2023-04-06T01:30:13;-0.90;99.90
15364;DHT22;7781;49.690;6.472;2023-04-06T01:32:49;-1.00;99.90
15364;DHT22;7781;49.690;6.472;2023-04-06T01:35:30;-1.00;99.90
15364;DHT22;7781;49.690;6.472;2023-04-06T01:38:12;-1.00;99.90
15364;DHT22;7781;49.690;6.472;2023-04-06T01:40:42;-1.10;99.90
15364;DHT22;7781;49.690;6.472;2023-04-06T01:43:11;-1.10;99.90
15364;DHT22;7781;49.690;6.472;2023-04-06T01:46:00;-1.20;99.90
15364;DHT22;7781;49.690;6.472;2023-04-06T01:48:33;-1.20;99.90
15364;DHT22;7781;49.690;6.472;2023-04-06T01:51:19;-1.20;99.90
15364;DHT22;7781;49.690;6.472;2023-04-06T01:53:57;-1.20;99.90
15364;DHT22;7781;49.690;6.472;2023-04-06T01:56:53;-1.20;99.90
15364;DHT22;7781;49.690;6.472;2023-04-06T01:59:30;-1.20;99.90
15364;DHT22;7781;49.690;6.472;2023-04-06T02:02:03;-1.20;99.90
15364;DHT22;7781;49.690;6.472;2023-04-06T02:04:36;-1.20;99.90
15364;DHT22;7781;49.690;6.472;2023-04-06T02:07:11;-1.30;99.90
15364;DHT22;7781;49.690;6.472;2023-04-06T02:09:43;-1.30;99.90
15364;DHT22;7781;49.690;6.472;2023-04-06T02:12:22;-1.30;99.90
15364;DHT22;7781;49.690;6.472;2023-04-06T02:14:52;-1.30;99.90
15364;DHT22;7781;49.690;6.472;2023-04-06T02:17:21;-1.30;99.90
15364;DHT22;7781;49.690;6.472;2023-04-06T02:19:50;-1.30;99.90
15364;DHT22;7781;49.690;6.472;2023-04-06T02:22:19;-1.30;99.90
15364;DHT22;7781;49.690;6.472;2023-04-06T02:24:48;-1.40;99.90
15364;DHT22;7781;49.690;6.472;2023-04-06T02:27:17;-1.40;99.90
15364;DHT22;7781;49.690;6.472;2023-04-06T02:29:48;-1.50;99.90
15364;DHT22;7781;49.690;6.472;2023-04-06T02:32:19;-1.50;99.90
15364;DHT22;7781;49.690;6.472;2023-04-06T02:34:50;-1.50;99.90
15364;DHT22;7781;49.690;6.472;2023-04-06T02:37:20;-1.50;99.90
15364;DHT22;7781;49.690;6.472;2023-04-06T02:39:50;-1.50;99.90
15364;DHT22;7781;49.690;6.472;2023-04-06T02:42:20;-1.50;99.90
15364;DHT22;7781;49.690;6.472;2023-04-06T02:44:53;-1.50;99.90
15364;DHT22;7781;49.690;6.472;2023-04-06T02:47:26;-1.50;99.90
15364;DHT22;7781;49.690;6.472;2023-04-06T02:49:56;-1.50;99.90
15364;DHT22;7781;49.690;6.472;2023-04-06T02:52:26;-1.60;99.90
15364;DHT22;7781;49.690;6.472;2023-04-06T02:54:56;-1.60;99.90
15364;DHT22;7781;49.690;6.472;2023-04-06T02:57:28;-1.60;99.90
15364;DHT22;7781;49.690;6.472;2023-04-06T02:59:59;-1.70;99.90
15364;DHT22;7781;49.690;6.472;2023-04-06T03:02:37;-1.70;99.90
15364;DHT22;7781;49.690;6.472;2023-04-06T03:05:09;-1.70;99.90
15364;DHT22;7781;49.690;6.472;2023-04-06T03:07:42;-1.80;99.90
15364;DHT22;7781;49.690;6.472;2023-04-06T03:10:17;-1.80;99.90
15364;DHT22;7781;49.690;6.472;2023-04-06T03:12:49;-1.70;99.90
15364;DHT22;7781;49.690;6.472;2023-04-06T03:15:34;-1.70;99.90
15364;DHT22;7781;49.690;6.472;2023-04-06T03:18:12;-1.80;99.90
15364;DHT22;7781;49.690;6.472;2023-04-06T03:20:45;-1.80;99.90
15364;DHT22;7781;49.690;6.472;2023-04-06T03:23:16;-1.80;99.90
15364;DHT22;7781;49.690;6.472;2023-04-06T03:25:52;-1.70;99.90
15364;DHT22;7781;49.690;6.472;2023-04-06T03:28:21;-1.80;99.90
15364;DHT22;7781;49.690;6.472;2023-04-06T03:30:56;-1.80;99.90
15364;DHT22;7781;49.690;6.472;2023-04-06T03:33:39;-1.80;99.90
15364;DHT22;7781;49.690;6.472;2023-04-06T03:36:13;-1.80;99.90
15364;DHT22;7781;49.690;6.472;2023-04-06T03:38:44;-1.90;99.90
15364;DHT22;7781;49.690;6.472;2023-04-06T03:41:14;-1.90;99.90
15364;DHT22;7781;49.690;6.472;2023-04-06T03:43:50;-1.90;99.90
15364;DHT22;7781;49.690;6.472;2023-04-06T03:46:20;-2.00;99.90
15364;DHT22;7781;49.690;6.472;2023-04-06T03:48:52;-1.90;99.90
15364;DHT22;7781;49.690;6.472;2023-04-06T03:51:23;-1.90;99.90
15364;DHT22;7781;49.690;6.472;2023-04-06T03:53:53;-2.00;99.90
15364;DHT22;7781;49.690;6.472;2023-04-06T03:56:22;-2.00;99.90
15364;DHT22;7781;49.690;6.472;2023-04-06T03:58:53;-2.00;99.90
15364;DHT22;7781;49.690;6.472;2023-04-06T04:01:24;-2.00;99.90
15364;DHT22;7781;49.690;6.472;2023-04-06T04:03:53;-1.90;99.90
15364;DHT22;7781;49.690;6.472;2023-04-06T04:06:22;-1.90;99.90
15364;DHT22;7781;49.690;6.472;2023-04-06T04:08:51;-1.90;99.90
15364;DHT22;7781;49.690;6.472;2023-04-06T04:11:20;-1.90;99.90
15364;DHT22;7781;49.690;6.472;2023-04-06T04:13:57;-1.90;99.90
15364;DHT22;7781;49.690;6.472;2023-04-06T04:16:27;-1.90;99.90
15364;DHT22;7781;49.690;6.472;2023-04-06T04:18:56;-1.80;99.90
15364;DHT22;7781;49.690;6.472;2023-04-06T04:21:29;-1.80;99.90
15364;DHT22;7781;49.690;6.472;2023-04-06T04:24:04;-1.80;99.90
15364;DHT22;7781;49.690;6.472;2023-04-06T04:26:40;-1.80;99.90
15364;DHT22;7781;49.690;6.472;2023-04-06T04:29:12;-1.90;99.90
15364;DHT22;7781;49.690;6.472;2023-04-06T04:31:42;-1.90;99.90
15364;DHT22;7781;49.690;6.472;2023-04-06T04:34:16;-1.90;99.90
15364;DHT22;7781;49.690;6.472;2023-04-06T04:36:47;-1.80;99.90
15364;DHT22;7781;49.690;6.472;2023-04-06T04:39:23;-1.80;99.90
15364;DHT22;7781;49.690;6.472;2023-04-06T04:42:00;-1.70;99.90
15364;DHT22;7781;49.690;6.472;2023-04-06T04:44:34;-1.70;99.90
15364;DHT22;7781;49.690;6.472;2023-04-06T04:47:05;-1.60;99.90
15364;DHT22;7781;49.690;6.472;2023-04-06T04:49:42;-1.60;99.90
15364;DHT22;7781;49.690;6.472;2023-04-06T04:52:15;-1.50;99.90
15364;DHT22;7781;49.690;6.472;2023-04-06T04:54:53;-1.50;99.90
15364;DHT22;7781;49.690;6.472;2023-04-06T04:57:28;-1.50;99.90
15364;DHT22;7781;49.690;6.472;2023-04-06T04:59:56;-1.40;99.90
15364;DHT22;7781;49.690;6.472;2023-04-06T05:02:27;-1.40;99.90
15364;DHT22;7781;49.690;6.472;2023-04-06T05:05:10;-1.30;99.90
15364;DHT22;7781;49.690;6.472;2023-04-06T05:07:42;-1.20;99.90
15364;DHT22;7781;49.690;6.472;2023-04-06T05:10:19;-1.20;99.90
15364;DHT22;7781;49.690;6.472;2023-04-06T05:13:00;-1.10;99.90
15364;DHT22;7781;49.690;6.472;2023-04-06T05:15:30;-1.10;99.90
15364;DHT22;7781;49.690;6.472;2023-04-06T05:18:13;-1.00;99.90
15364;DHT22;7781;49.690;6.472;2023-04-06T05:20:42;-1.00;99.90
15364;DHT22;7781;49.690;6.472;2023-04-06T05:23:13;-1.00;99.90
15364;DHT22;7781;49.690;6.472;2023-04-06T05:25:43;-0.90;99.90
15364;DHT22;7781;49.690;6.472;2023-04-06T05:28:19;-0.80;99.90
15364;DHT22;7781;49.690;6.472;2023-04-06T05:30:55;-0.80;99.90
15364;DHT22;7781;49.690;6.472;2023-04-06T05:33:29;-0.70;99.90
15364;DHT22;7781;49.690;6.472;2023-04-06T05:36:06;-0.60;99.90
15364;DHT22;7781;49.690;6.472;2023-04-06T05:38:39;-0.60;99.90
15364;DHT22;7781;49.690;6.472;2023-04-06T05:41:18;-0.50;99.90
15364;DHT22;7781;49.690;6.472;2023-04-06T05:43:49;-0.40;99.90
15364;DHT22;7781;49.690;6.472;2023-04-06T05:46:18;-0.30;99.90
15364;DHT22;7781;49.690;6.472;2023-04-06T05:48:49;-0.20;99.90
15364;DHT22;7781;49.690;6.472;2023-04-06T05:51:22;-0.10;99.90
15364;DHT22;7781;49.690;6.472;2023-04-06T05:53:52;-0.10;99.90
15364;DHT22;7781;49.690;6.472;2023-04-06T05:56:21;-0.10;99.90
15364;DHT22;7781;49.690;6.472;2023-04-06T05:58:51;0.00;99.90
15364;DHT22;7781;49.690;6.472;2023-04-06T06:01:25;0.10;99.90
15364;DHT22;7781;49.690;6.472;2023-04-06T06:03:57;0.20;99.90
15364;DHT22;7781;49.690;6.472;2023-04-06T06:06:29;0.30;99.90
15364;DHT22;7781;49.690;6.472;2023-04-06T06:09:09;0.30;99.90
15364;DHT22;7781;49.690;6.472;2023-04-06T06:11:44;0.30;99.90
15364;DHT22;7781;49.690;6.472;2023-04-06T06:14:17;0.30;99.90
15364;DHT22;7781;49.690;6.472;2023-04-06T06:16:47;0.40;99.90
15364;DHT22;7781;49.690;6.472;2023-04-06T06:19:18;0.50;99.90
15364;DHT22;7781;49.690;6.472;2023-04-06T06:21:47;0.60;99.90
15364;DHT22;7781;49.690;6.472;2023-04-06T06:24:16;0.70;99.90
15364;DHT22;7781;49.690;6.472;2023-04-06T06:26:45;0.70;99.90
15364;DHT22;7781;49.690;6.472;2023-04-06T06:29:19;0.70;99.90
15364;DHT22;7781;49.690;6.472;2023-04-06T06:31:48;0.80;99.90
15364;DHT22;7781;49.690;6.472;2023-04-06T06:34:19;1.00;99.90
15364;DHT22;7781;49.690;6.472;2023-04-06T06:36:49;1.10;99.90
15364;DHT22;7781;49.690;6.472;2023-04-06T06:39:19;1.20;99.90
15364;DHT22;7781;49.690;6.472;2023-04-06T06:41:50;1.30;99.90
15364;DHT22;7781;49.690;6.472;2023-04-06T06:44:23;1.40;99.90
15364;DHT22;7781;49.690;6.472;2023-04-06T06:46:52;1.50;99.90
15364;DHT22;7781;49.690;6.472;2023-04-06T06:49:22;1.70;99.90
15364;DHT22;7781;49.690;6.472;2023-04-06T06:51:51;1.80;99.90
15364;DHT22;7781;49.690;6.472;2023-04-06T06:54:21;1.90;99.90
15364;DHT22;7781;49.690;6.472;2023-04-06T06:56:50;2.00;99.90
15364;DHT22;7781;49.690;6.472;2023-04-06T06:59:19;2.10;99.90
15364;DHT22;7781;49.690;6.472;2023-04-06T07:01:50;2.20;99.90
15364;DHT22;7781;49.690;6.472;2023-04-06T07:04:19;2.40;99.90
15364;DHT22;7781;49.690;6.472;2023-04-06T07:06:50;2.50;99.90
15364;DHT22;7781;49.690;6.472;2023-04-06T07:09:20;2.50;99.90
15364;DHT22;7781;49.690;6.472;2023-04-06T07:11:50;2.60;99.90
15364;DHT22;7781;49.690;6.472;2023-04-06T07:14:19;2.70;99.90
15364;DHT22;7781;49.690;6.472;2023-04-06T07:16:48;2.80;99.90
15364;DHT22;7781;49.690;6.472;2023-04-06T07:19:18;2.90;99.90
15364;DHT22;7781;49.690;6.472;2023-04-06T07:21:47;3.00;97.90
15364;DHT22;7781;49.690;6.472;2023-04-06T07:24:18;3.00;94.10
15364;DHT22;7781;49.690;6.472;2023-04-06T07:26:49;3.00;31.20
15364;DHT22;7781;49.690;6.472;2023-04-06T07:29:19;3.00;1.00
15364;DHT22;7781;49.690;6.472;2023-04-06T07:31:48;3.00;4.70
15364;DHT22;7781;49.690;6.472;2023-04-06T07:34:17;3.10;26.80
15364;DHT22;7781;49.690;6.472;2023-04-06T07:36:47;3.10;33.70
15364;DHT22;7781;49.690;6.472;2023-04-06T07:39:33;3.20;40.30
15364;DHT22;7781;49.690;6.472;2023-04-06T07:42:02;3.30;34.70
15364;DHT22;7781;49.690;6.472;2023-04-06T07:44:32;3.50;23.70
15364;DHT22;7781;49.690;6.472;2023-04-06T07:47:01;3.60;4.00
15364;DHT22;7781;49.690;6.472;2023-04-06T07:49:30;3.70;1.00
15364;DHT22;7781;49.690;6.472;2023-04-06T07:52:01;3.70;1.00
15364;DHT22;7781;49.690;6.472;2023-04-06T07:54:30;3.70;1.00
15364;DHT22;7781;49.690;6.472;2023-04-06T07:57:01;3.80;1.00
15364;DHT22;7781;49.690;6.472;2023-04-06T07:59:30;3.90;1.00
15364;DHT22;7781;49.690;6.472;2023-04-06T08:01:59;4.00;1.00
15364;DHT22;7781;49.690;6.472;2023-04-06T08:04:27;4.20;1.00
15364;DHT22;7781;49.690;6.472;2023-04-06T08:06:56;4.50;1.00
15364;DHT22;7781;49.690;6.472;2023-04-06T08:09:26;4.70;1.00
15364;DHT22;7781;49.690;6.472;2023-04-06T08:11:55;4.80;1.00
15364;DHT22;7781;49.690;6.472;2023-04-06T08:14:25;5.00;1.00
15364;DHT22;7781;49.690;6.472;2023-04-06T08:16:54;5.30;1.00
15364;DHT22;7781;49.690;6.472;2023-04-06T08:19:23;5.70;1.00
15364;DHT22;7781;49.690;6.472;2023-04-06T08:21:52;6.00;1.00
15364;DHT22;7781;49.690;6.472;2023-04-06T08:24:21;6.50;1.00
15364;DHT22;7781;49.690;6.472;2023-04-06T08:26:50;6.70;1.00
15364;DHT22;7781;49.690;6.472;2023-04-06T08:29:19;6.90;99.90
15364;DHT22;7781;49.690;6.472;2023-04-06T08:31:49;7.10;1.00
15364;DHT22;7781;49.690;6.472;2023-04-06T08:34:18;7.20;99.90
15364;DHT22;7781;49.690;6.472;2023-04-06T08:36:47;7.40;99.90
15364;DHT22;7781;49.690;6.472;2023-04-06T08:39:16;7.40;27.60
15364;DHT22;7781;49.690;6.472;2023-04-06T08:41:51;7.50;1.00
15364;DHT22;7781;49.690;6.472;2023-04-06T08:44:24;7.70;1.00
15364;DHT22;7781;49.690;6.472;2023-04-06T08:46:54;7.90;99.90
15364;DHT22;7781;49.690;6.472;2023-04-06T08:49:24;8.00;99.90
15364;DHT22;7781;49.690;6.472;2023-04-06T08:51:54;8.10;1.00
15364;DHT22;7781;49.690;6.472;2023-04-06T08:54:24;8.30;99.90
15364;DHT22;7781;49.690;6.472;2023-04-06T08:56:53;8.50;1.00
15364;DHT22;7781;49.690;6.472;2023-04-06T08:59:25;8.50;99.90
15364;DHT22;7781;49.690;6.472;2023-04-06T09:01:56;8.60;99.90
15364;DHT22;7781;49.690;6.472;2023-04-06T09:04:26;8.70;99.90
15364;DHT22;7781;49.690;6.472;2023-04-06T09:06:55;8.70;1.00
15364;DHT22;7781;49.690;6.472;2023-04-06T09:09:24;8.80;1.00
15364;DHT22;7781;49.690;6.472;2023-04-06T09:11:53;8.90;99.90
15364;DHT22;7781;49.690;6.472;2023-04-06T09:14:34;9.00;6.00
15364;DHT22;7781;49.690;6.472;2023-04-06T09:17:06;9.20;1.00
15364;DHT22;7781;49.690;6.472;2023-04-06T09:19:45;9.30;99.90
15364;DHT22;7781;49.690;6.472;2023-04-06T09:22:14;9.40;99.90
15364;DHT22;7781;49.690;6.472;2023-04-06T09:24:45;9.40;1.00
15364;DHT22;7781;49.690;6.472;2023-04-06T09:27:14;9.50;99.90
15364;DHT22;7781;49.690;6.472;2023-04-06T09:29:44;9.50;84.00
15364;DHT22;7781;49.690;6.472;2023-04-06T09:32:14;9.60;99.90
15364;DHT22;7781;49.690;6.472;2023-04-06T09:34:44;9.70;1.00
15364;DHT22;7781;49.690;6.472;2023-04-06T09:37:18;9.80;99.90
15364;DHT22;7781;49.690;6.472;2023-04-06T09:39:47;9.90;99.90
15364;DHT22;7781;49.690;6.472;2023-04-06T09:42:24;10.10;1.00
15364;DHT22;7781;49.690;6.472;2023-04-06T09:44:54;10.10;99.90
15364;DHT22;7781;49.690;6.472;2023-04-06T09:47:25;10.10;99.90
15364;DHT22;7781;49.690;6.472;2023-04-06T09:49:59;10.30;99.90
15364;DHT22;7781;49.690;6.472;2023-04-06T09:52:32;10.30;99.90
15364;DHT22;7781;49.690;6.472;2023-04-06T09:55:03;10.40;99.90
15364;DHT22;7781;49.690;6.472;2023-04-06T09:57:35;10.50;99.90
15364;DHT22;7781;49.690;6.472;2023-04-06T10:00:08;10.70;99.90
15364;DHT22;7781;49.690;6.472;2023-04-06T10:02:45;10.70;99.90
15364;DHT22;7781;49.690;6.472;2023-04-06T10:05:19;10.80;99.90
15364;DHT22;7781;49.690;6.472;2023-04-06T10:07:51;10.90;99.90
15364;DHT22;7781;49.690;6.472;2023-04-06T10:10:27;10.90;99.90
15364;DHT22;7781;49.690;6.472;2023-04-06T10:12:59;11.00;99.90
15364;DHT22;7781;49.690;6.472;2023-04-06T10:15:29;11.00;99.90
15364;DHT22;7781;49.690;6.472;2023-04-06T10:18:00;11.10;99.90
15364;DHT22;7781;49.690;6.472;2023-04-06T10:20:34;11.20;99.90
15364;DHT22;7781;49.690;6.472;2023-04-06T10:23:09;11.20;99.90
15364;DHT22;7781;49.690;6.472;2023-04-06T10:25:52;11.10;99.90
15364;DHT22;7781;49.690;6.472;2023-04-06T10:28:22;11.10;99.90
15364;DHT22;7781;49.690;6.472;2023-04-06T10:30:57;11.20;99.90
15364;DHT22;7781;49.690;6.472;2023-04-06T10:33:28;11.20;99.90
15364;DHT22;7781;49.690;6.472;2023-04-06T10:36:10;11.10;99.90
15364;DHT22;7781;49.690;6.472;2023-04-06T10:38:40;11.10;99.90
15364;DHT22;7781;49.690;6.472;2023-04-06T10:41:11;11.20;99.90
15364;DHT22;7781;49.690;6.472;2023-04-06T10:43:41;11.30;99.90
15364;DHT22;7781;49.690;6.472;2023-04-06T10:46:13;11.30;99.90
15364;DHT22;7781;49.690;6.472;2023-04-06T10:48:45;11.20;99.90
15364;DHT22;7781;49.690;6.472;2023-04-06T10:51:16;11.30;99.90
15364;DHT22;7781;49.690;6.472;2023-04-06T10:53:46;11.30;99.90
15364;DHT22;7781;49.690;6.472;2023-04-06T10:56:17;11.30;99.90
15364;DHT22;7781;49.690;6.472;2023-04-06T10:58:48;11.20;99.90
15364;DHT22;7781;49.690;6.472;2023-04-06T11:01:19;11.00;99.90
15364;DHT22;7781;49.690;6.472;2023-04-06T11:03:53;11.10;99.90
15364;DHT22;7781;49.690;6.472;2023-04-06T11:06:25;11.00;99.90
15364;DHT22;7781;49.690;6.472;2023-04-06T11:08:56;11.10;99.90
15364;DHT22;7781;49.690;6.472;2023-04-06T11:11:26;11.10;99.90
15364;DHT22;7781;49.690;6.472;2023-04-06T11:13:56;11.20;99.90
15364;DHT22;7781;49.690;6.472;2023-04-06T11:16:27;11.30;99.90
15364;DHT22;7781;49.690;6.472;2023-04-06T11:18:58;11.30;99.90
15364;DHT22;7781;49.690;6.472;2023-04-06T11:21:33;11.30;99.90
15364;DHT22;7781;49.690;6.472;2023-04-06T11:24:07;11.20;99.90
15364;DHT22;7781;49.690;6.472;2023-04-06T11:26:40;11.30;99.90
15364;DHT22;7781;49.690;6.472;2023-04-06T11:29:11;11.40;99.90
15364;DHT22;7781;49.690;6.472;2023-04-06T11:31:42;11.50;99.90
15364;DHT22;7781;49.690;6.472;2023-04-06T11:34:16;11.70;99.90
15364;DHT22;7781;49.690;6.472;2023-04-06T11:36:46;11.80;99.90
15364;DHT22;7781;49.690;6.472;2023-04-06T11:39:21;11.90;99.90
15364;DHT22;7781;49.690;6.472;2023-04-06T11:41:52;11.80;99.90
15364;DHT22;7781;49.690;6.472;2023-04-06T11:44:29;11.90;99.90
15364;DHT22;7781;49.690;6.472;2023-04-06T11:46:58;11.80;99.90
15364;DHT22;7781;49.690;6.472;2023-04-06T11:49:29;11.60;99.90
15364;DHT22;7781;49.690;6.472;2023-04-06T11:52:00;11.50;99.90
15364;DHT22;7781;49.690;6.472;2023-04-06T11:54:33;11.40;99.90
15364;DHT22;7781;49.690;6.472;2023-04-06T11:57:01;11.50;99.90
15364;DHT22;7781;49.690;6.472;2023-04-06T11:59:31;11.50;99.90
15364;DHT22;7781;49.690;6.472;2023-04-06T12:02:01;11.50;99.90
15364;DHT22;7781;49.690;6.472;2023-04-06T12:04:32;11.60;99.90
15364;DHT22;7781;49.690;6.472;2023-04-06T12:07:02;11.60;99.90
15364;DHT22;7781;49.690;6.472;2023-04-06T12:09:31;11.70;99.90
15364;DHT22;7781;49.690;6.472;2023-04-06T12:12:01;11.50;99.90
15364;DHT22;7781;49.690;6.472;2023-04-06T12:14:30;11.60;99.90
15364;DHT22;7781;49.690;6.472;2023-04-06T12:17:00;11.60;99.90
15364;DHT22;7781;49.690;6.472;2023-04-06T12:19:28;11.70;99.90
15364;DHT22;7781;49.690;6.472;2023-04-06T12:22:00;11.70;99.90
15364;DHT22;7781;49.690;6.472;2023-04-06T12:24:29;11.60;99.90
15364;DHT22;7781;49.690;6.472;2023-04-06T12:26:58;11.40;99.90
15364;DHT22;7781;49.690;6.472;2023-04-06T12:29:36;11.00;1.00
15364;DHT22;7781;49.690;6.472;2023-04-06T12:32:05;10.90;1.00
15364;DHT22;7781;49.690;6.472;2023-04-06T12:34:34;10.60;99.90
15364;DHT22;7781;49.690;6.472;2023-04-06T12:37:04;10.60;1.00
15364;DHT22;7781;49.690;6.472;2023-04-06T12:39:33;10.60;1.00
15364;DHT22;7781;49.690;6.472;2023-04-06T12:42:02;10.50;1.00
15364;DHT22;7781;49.690;6.472;2023-04-06T12:44:31;10.50;58.20
15364;DHT22;7781;49.690;6.472;2023-04-06T12:47:00;10.50;1.00
15364;DHT22;7781;49.690;6.472;2023-04-06T12:49:30;10.50;1.00
15364;DHT22;7781;49.690;6.472;2023-04-06T12:51:58;10.30;61.70
15364;DHT22;7781;49.690;6.472;2023-04-06T12:54:30;10.30;99.90
15364;DHT22;7781;49.690;6.472;2023-04-06T12:56:59;10.30;1.00
15364;DHT22;7781;49.690;6.472;2023-04-06T12:59:28;10.40;99.90
15364;DHT22;7781;49.690;6.472;2023-04-06T13:02:01;10.40;99.90
15364;DHT22;7781;49.690;6.472;2023-04-06T13:04:31;10.60;1.00
15364;DHT22;7781;49.690;6.472;2023-04-06T13:07:00;10.80;1.00
15364;DHT22;7781;49.690;6.472;2023-04-06T13:09:30;10.80;1.00
15364;DHT22;7781;49.690;6.472;2023-04-06T13:12:00;10.90;1.00
15364;DHT22;7781;49.690;6.472;2023-04-06T13:14:30;11.00;1.00
15364;DHT22;7781;49.690;6.472;2023-04-06T13:16:59;10.90;99.90
15364;DHT22;7781;49.690;6.472;2023-04-06T13:19:28;10.70;99.90
15364;DHT22;7781;49.690;6.472;2023-04-06T13:21:58;10.50;1.00
15364;DHT22;7781;49.690;6.472;2023-04-06T13:24:26;10.40;99.90
15364;DHT22;7781;49.690;6.472;2023-04-06T13:26:56;10.40;1.00
15364;DHT22;7781;49.690;6.472;2023-04-06T13:29:27;10.20;99.90
15364;DHT22;7781;49.690;6.472;2023-04-06T13:31:56;10.20;1.00
15364;DHT22;7781;49.690;6.472;2023-04-06T13:34:25;10.00;1.00
15364;DHT22;7781;49.690;6.472;2023-04-06T13:36:54;10.00;1.00
15364;DHT22;7781;49.690;6.472;2023-04-06T13:39:23;10.00;99.90
15364;DHT22;7781;49.690;6.472;2023-04-06T13:41:53;9.90;1.00
15364;DHT22;7781;49.690;6.472;2023-04-06T13:44:25;10.00;1.00
15364;DHT22;7781;49.690;6.472;2023-04-06T13:46:54;10.00;90.30
15364;DHT22;7781;49.690;6.472;2023-04-06T13:49:23;10.00;99.90
15364;DHT22;7781;49.690;6.472;2023-04-06T13:51:55;9.90;99.90
15364;DHT22;7781;49.690;6.472;2023-04-06T13:54:27;9.80;1.00
15364;DHT22;7781;49.690;6.472;2023-04-06T13:56:58;9.70;99.90
15364;DHT22;7781;49.690;6.472;2023-04-06T13:59:33;9.70;1.00
15364;DHT22;7781;49.690;6.472;2023-04-06T14:02:03;9.70;1.00
15364;DHT22;7781;49.690;6.472;2023-04-06T14:04:32;9.80;1.00
15364;DHT22;7781;49.690;6.472;2023-04-06T14:07:01;9.70;1.00
15364;DHT22;7781;49.690;6.472;2023-04-06T14:09:30;9.60;1.00
15364;DHT22;7781;49.690;6.472;2023-04-06T14:11:59;9.60;1.00
15364;DHT22;7781;49.690;6.472;2023-04-06T14:14:28;9.60;1.00
15364;DHT22;7781;49.690;6.472;2023-04-06T14:17:02;9.60;1.00
15364;DHT22;7781;49.690;6.472;2023-04-06T14:19:31;9.40;1.00
15364;DHT22;7781;49.690;6.472;2023-04-06T14:22:05;9.20;1.00
15364;DHT22;7781;49.690;6.472;2023-04-06T14:24:38;9.10;1.00
15364;DHT22;7781;49.690;6.472;2023-04-06T14:27:07;9.10;1.00
15364;DHT22;7781;49.690;6.472;2023-04-06T14:29:35;9.00;33.00
15364;DHT22;7781;49.690;6.472;2023-04-06T14:32:10;9.00;13.40
15364;DHT22;7781;49.690;6.472;2023-04-06T14:34:40;8.90;1.00
15364;DHT22;7781;49.690;6.472;2023-04-06T14:37:10;8.90;60.90
15364;DHT22;7781;49.690;6.472;2023-04-06T14:39:39;8.80;53.90
15364;DHT22;7781;49.690;6.472;2023-04-06T14:42:08;8.80;89.80
15364;DHT22;7781;49.690;6.472;2023-04-06T14:44:37;8.80;99.90
15364;DHT22;7781;49.690;6.472;2023-04-06T14:47:12;8.70;66.40
15364;DHT22;7781;49.690;6.472;2023-04-06T14:49:42;8.70;73.70
15364;DHT22;7781;49.690;6.472;2023-04-06T14:52:11;8.70;99.90
15364;DHT22;7781;49.690;6.472;2023-04-06T14:54:41;8.60;71.50
15364;DHT22;7781;49.690;6.472;2023-04-06T14:57:11;8.60;96.10
15364;DHT22;7781;49.690;6.472;2023-04-06T14:59:42;8.60;99.90
15364;DHT22;7781;49.690;6.472;2023-04-06T15:02:12;8.60;99.90
15364;DHT22;7781;49.690;6.472;2023-04-06T15:04:46;8.60;99.90
15364;DHT22;7781;49.690;6.472;2023-04-06T15:07:19;8.60;99.90
15364;DHT22;7781;49.690;6.472;2023-04-06T15:09:49;8.50;99.90
15364;DHT22;7781;49.690;6.472;2023-04-06T15:12:20;8.50;99.90
15364;DHT22;7781;49.690;6.472;2023-04-06T15:14:51;8.50;99.90
15364;DHT22;7781;49.690;6.472;2023-04-06T15:17:21;8.40;99.90
15364;DHT22;7781;49.690;6.472;2023-04-06T15:19:55;8.40;99.90
15364;DHT22;7781;49.690;6.472;2023-04-06T15:22:24;8.40;99.90
15364;DHT22;7781;49.690;6.472;2023-04-06T15:24:54;8.40;99.90
15364;DHT22;7781;49.690;6.472;2023-04-06T15:27:24;8.40;99.90
15364;DHT22;7781;49.690;6.472;2023-04-06T15:29:54;8.30;99.90
15364;DHT22;7781;49.690;6.472;2023-04-06T15:32:25;8.30;99.90
15364;DHT22;7781;49.690;6.472;2023-04-06T15:34:53;8.20;99.90
15364;DHT22;7781;49.690;6.472;2023-04-06T15:37:23;8.20;99.90
15364;DHT22;7781;49.690;6.472;2023-04-06T15:39:51;8.20;99.90
15364;DHT22;7781;49.690;6.472;2023-04-06T15:42:28;8.20;99.90
15364;DHT22;7781;49.690;6.472;2023-04-06T15:44:58;8.10;99.90
15364;DHT22;7781;49.690;6.472;2023-04-06T15:47:28;8.20;99.90
15364;DHT22;7781;49.690;6.472;2023-04-06T15:49:57;8.20;99.90
15364;DHT22;7781;49.690;6.472;2023-04-06T15:52:26;8.20;99.90
15364;DHT22;7781;49.690;6.472;2023-04-06T15:54:55;8.10;99.90
15364;DHT22;7781;49.690;6.472;2023-04-06T15:57:23;8.20;99.90
15364;DHT22;7781;49.690;6.472;2023-04-06T15:59:53;8.00;99.90
15364;DHT22;7781;49.690;6.472;2023-04-06T16:02:22;8.00;99.90
15364;DHT22;7781;49.690;6.472;2023-04-06T16:04:57;7.90;99.90
15364;DHT22;7781;49.690;6.472;2023-04-06T16:07:27;7.90;99.90
15364;DHT22;7781;49.690;6.472;2023-04-06T16:09:57;7.80;99.90
15364;DHT22;7781;49.690;6.472;2023-04-06T16:12:26;7.70;99.90
15364;DHT22;7781;49.690;6.472;2023-04-06T16:14:57;7.80;99.90
15364;DHT22;7781;49.690;6.472;2023-04-06T16:17:26;7.70;99.90
15364;DHT22;7781;49.690;6.472;2023-04-06T16:19:58;7.70;99.90
15364;DHT22;7781;49.690;6.472;2023-04-06T16:22:29;7.70;99.90